Airfield :
LOGIN :

Register | Disclaimer

   EN    FR    IT 

 










Legend :    VFR   Marginal VFR   IFR   Intensive IFR   Very Intensive IFR
Visi :
Ceiling :
>= 8 km
>= 3000ft
5 to 8 km
1000 to 3000 ft
1500m to 5 km
500 to 1000 ft
800 to 1500m
200 to 500 ft
< 800m
< 200 ft
Symbols :   Thunderstorms  Fog  Heavy snow  Heavy precipitations  Wind > 20 kt
SIGMETs :     Misc.  Thunderstorms  Icing  Turbulence  Mountain Waves  Volcanic Ashes







- Airport Elevation : -11 ft
- IATA code : AMS


EHAM - Amsterdam Schiphol

CURRENT METAR :
  • 142225Z 21005KT CAVOK 16/14 Q1017 NOSIG

EXPIRED METARs :
  • 142155Z 23005KT 210V270 CAVOK 18/14 Q1017 NOSIG
  • 142125Z 22006KT 190V260 CAVOK 18/15 Q1017 NOSIG
  • 142055Z 24007KT CAVOK 19/14 Q1017 NOSIG
  • 142025Z 25007KT CAVOK 19/15 Q1017 NOSIG
  • 141955Z 26007KT 230V290 9999 FEW030 19/15 Q1017 NOSIG

TAF TAF EHAM
Valid from the 14 at 18:00 until the 16 at 00:00 UTC


141655Z 1418/1524 26009KT 9999 FEW020 SCT024
BECMG 1418/1421 20004KT CAVOK
PROB30 1502/1508 4000 BR SCT006 BKN009
BECMG 1507/1510 24012KT 9999 BKN022
BECMG 1517/1520 21006KT CAVOK
No reported NOTAMs for that airfield.



MET'MAP, your aeronautical weather chart ! - Copyright ORBIFLY December 2007 - Disclaimer

ORBIFLY MET'MAP TEAM :

Programming & Development : Alexandra Zaïnal
Concept & Development : Baudouin d'Aumeries
Co-Development & Prog : Marc-Olivier Méhu
Technical & hardware support : Manuel Goepfert

Contact : metmap@orbifly.com




SOURCES & CREDITS :

   NOAA